Time;durP1;ratioP1;P1;durP2;ratioP2;P2;SDS_P1;SDS_P2;PMS_P1;PMS_P2;Temp;Humidity;BMP_temperature;BMP_pressure;BME280_temperature;BME280_humidity;BME280_pressure;Samples;Min_cycle;Max_cycle;Signal;HPM_P1;HPM_P2
2022/06/28 00:02:04;;;;;;;4.80;4.30;;;23.60;74.90;;;;;;5030331;28;20026;-58
2022/06/28 00:04:30;;;;;;;4.30;3.90;;;23.60;75.00;;;;;;5032025;28;20030;-58
2022/06/28 00:06:55;;;;;;;4.78;4.22;;;23.60;75.00;;;;;;5022006;28;20473;-58
2022/06/28 00:09:21;;;;;;;4.28;3.88;;;23.60;75.10;;;;;;5020632;28;20026;-58
2022/06/28 00:11:49;;;;;;;4.63;3.70;;;23.60;75.30;;;;;;5024723;28;20025;-58
2022/06/28 00:16:59;;;;;;;4.13;3.70;;;23.50;75.30;;;;;;5024767;28;20483;-58
2022/06/28 00:19:25;;;;;;;5.18;3.90;;;23.50;75.40;;;;;;5026740;28;20033;-58
2022/06/28 00:21:51;;;;;;;3.80;3.40;;;23.50;75.60;;;;;;5031912;28;20036;-58
2022/06/28 00:24:16;;;;;;;4.93;4.22;;;23.50;75.60;;;;;;5027190;28;20087;-58
2022/06/28 00:26:42;;;;;;;4.35;3.95;;;23.40;75.70;;;;;;5029635;28;20036;-58
2022/06/28 00:29:08;;;;;;;4.28;3.35;;;23.40;75.80;;;;;;5028691;28;20536;-57
2022/06/28 00:31:35;;;;;;;4.60;4.00;;;23.40;75.90;;;;;;5034621;28;20144;-58
2022/06/28 00:34:02;;;;;;;5.32;3.65;;;23.40;76.10;;;;;;5034880;28;20112;-58
2022/06/28 00:36:27;;;;;;;4.35;3.95;;;23.30;76.20;;;;;;5033782;28;20029;-57
2022/06/28 00:38:53;;;;;;;4.38;3.47;;;23.30;76.20;;;;;;5031100;28;20014;-58
2022/06/28 00:41:19;;;;;;;4.50;3.65;;;23.30;76.40;;;;;;5028162;28;20038;-57
2022/06/28 00:43:45;;;;;;;3.97;3.53;;;23.20;76.40;;;;;;5034498;28;20436;-58
2022/06/28 00:46:11;;;;;;;4.03;3.63;;;23.20;76.50;;;;;;5031777;28;20374;-58
2022/06/28 00:48:38;;;;;;;4.13;3.75;;;23.20;76.60;;;;;;5025139;28;20029;-57
2022/06/28 00:51:04;;;;;;;4.60;4.05;;;23.20;76.60;;;;;;5030765;28;20021;-57
2022/06/28 00:53:30;;;;;;;3.88;3.47;;;23.10;76.60;;;;;;5027207;28;20096;-58
2022/06/28 00:55:56;;;;;;;4.32;3.90;;;23.10;76.80;;;;;;5021473;28;20022;-58
2022/06/28 00:58:21;;;;;;;4.93;4.20;;;23.10;76.90;;;;;;5032993;28;20416;-58
2022/06/28 01:00:48;;;;;;;4.50;4.10;;;23.10;76.90;;;;;;5034612;28;20057;-58
2022/06/28 01:03:17;;;;;;;4.15;3.80;;;23.10;76.90;;;;;;5034393;28;20657;-57
2022/06/28 01:05:44;;;;;;;3.80;3.38;;;23.10;77.00;;;;;;5034823;28;20031;-58
2022/06/28 01:08:11;;;;;;;4.70;3.58;;;23.00;76.90;;;;;;5033857;28;20504;-57
2022/06/28 01:10:37;;;;;;;4.78;3.90;;;23.00;77.00;;;;;;5024165;28;20498;-58
2022/06/28 01:13:04;;;;;;;4.70;3.63;;;23.00;77.10;;;;;;5028904;28;20026;-58
2022/06/28 01:15:31;;;;;;;3.92;3.53;;;23.00;77.20;;;;;;5029942;28;20025;-58
2022/06/28 01:18:00;;;;;;;4.40;3.97;;;23.00;77.40;;;;;;5024208;28;20101;-58
2022/06/28 01:20:25;;;;;;;4.43;3.95;;;23.00;77.50;;;;;;5029867;28;20512;-58
2022/06/28 01:22:53;;;;;;;4.60;3.85;;;23.00;77.60;;;;;;5030036;28;20017;-57
2022/06/28 01:25:19;;;;;;;4.18;3.78;;;23.00;77.70;;;;;;5027681;28;20105;-57
2022/06/28 01:27:46;;;;;;;4.30;3.90;;;22.90;77.60;;;;;;5047602;28;20025;-58
2022/06/28 01:30:12;;;;;;;4.50;4.07;;;22.90;77.70;;;;;;5034593;28;20025;-58
2022/06/28 01:32:38;;;;;;;4.55;4.10;;;22.90;77.70;;;;;;5027064;28;20029;-56
2022/06/28 01:35:05;;;;;;;3.80;3.40;;;22.90;77.70;;;;;;5028407;28;20029;-58
2022/06/28 01:37:31;;;;;;;3.90;3.60;;;22.90;77.60;;;;;;5025738;28;20097;-58
2022/06/28 01:39:56;;;;;;;4.28;3.88;;;22.90;77.60;;;;;;5027025;28;20025;-58
2022/06/28 01:42:22;;;;;;;4.13;3.72;;;22.90;77.50;;;;;;5021135;28;20432;-58
2022/06/28 01:44:50;;;;;;;3.67;3.38;;;22.90;77.40;;;;;;5032886;28;20447;-58
2022/06/28 01:47:17;;;;;;;3.95;3.50;;;22.90;77.30;;;;;;5030264;28;20026;-58
2022/06/28 01:49:43;;;;;;;5.38;4.22;;;22.90;77.30;;;;;;5026350;28;20061;-57
2022/06/28 01:52:09;;;;;;;4.80;4.05;;;22.90;77.10;;;;;;5031912;28;20060;-58
2022/06/28 01:54:34;;;;;;;4.38;3.97;;;22.90;77.00;;;;;;5028213;28;20042;-58
2022/06/28 01:57:04;;;;;;;4.28;3.78;;;22.90;77.10;;;;;;5030385;28;20101;-58
2022/06/28 01:59:30;;;;;;;4.82;3.72;;;22.90;77.00;;;;;;5018170;28;20029;-57
2022/06/28 02:01:55;;;;;;;3.95;3.55;;;22.90;77.80;;;;;;5028142;28;20029;-58
2022/06/28 02:04:28;;;;;;;4.68;3.70;;;22.90;77.20;;;;;;5032869;28;20032;-58
2022/06/28 02:06:55;;;;;;;4.00;3.58;;;22.90;77.40;;;;;;5033702;28;20040;-58
2022/06/28 02:09:21;;;;;;;5.05;4.05;;;22.90;77.30;;;;;;5032128;28;20173;-57
2022/06/28 02:11:47;;;;;;;4.03;3.63;;;22.90;77.30;;;;;;5038250;28;20021;-57
2022/06/28 02:14:13;;;;;;;4.32;3.92;;;22.90;77.40;;;;;;5030517;28;20041;-58
2022/06/28 02:16:38;;;;;;;4.40;3.78;;;22.90;77.50;;;;;;5032384;28;20132;-58
2022/06/28 02:19:04;;;;;;;4.38;3.97;;;22.90;77.40;;;;;;5028019;28;20037;-57
2022/06/28 02:21:38;;;;;;;3.97;3.58;;;22.90;77.50;;;;;;5019736;28;20032;-57
2022/06/28 02:24:05;;;;;;;4.40;4.00;;;22.90;77.50;;;;;;5028221;28;20075;-57
2022/06/28 02:26:34;;;;;;;4.82;3.90;;;22.90;77.80;;;;;;5023675;28;20032;-58
2022/06/28 02:29:05;;;;;;;4.88;3.97;;;22.90;77.70;;;;;;5028704;28;20040;-58
2022/06/28 02:31:31;;;;;;;;;;;23.00;77.80;;;;;;5033256;28;20021;-57
2022/06/28 02:33:58;;;;;;;3.65;3.33;;;22.90;77.70;;;;;;5023452;28;19910;-58
2022/06/28 02:41:43;;;;;;;4.75;3.60;;;23.00;77.70;;;;;;5028307;28;20056;-58
2022/06/28 02:44:09;;;;;;;4.35;3.58;;;23.00;77.60;;;;;;5028221;28;20026;-58
2022/06/28 02:46:35;;;;;;;4.03;3.60;;;23.00;77.60;;;;;;5032382;28;20649;-57
2022/06/28 02:49:01;;;;;;;4.30;3.90;;;23.00;77.60;;;;;;5029211;28;20040;-58
2022/06/28 02:51:27;;;;;;;4.45;4.05;;;23.00;77.70;;;;;;5030806;28;20065;-58
2022/06/28 02:53:53;;;;;;;4.38;3.67;;;23.10;77.60;;;;;;5028552;28;20108;-58
2022/06/28 02:56:19;;;;;;;4.90;4.18;;;23.10;77.50;;;;;;5029123;28;20025;-57
2022/06/28 02:58:45;;;;;;;4.22;3.83;;;23.10;77.40;;;;;;5031483;28;20067;-58
2022/06/28 03:01:10;;;;;;;4.50;4.00;;;23.10;77.30;;;;;;5032296;28;20389;-58
2022/06/28 03:03:36;;;;;;;5.00;4.25;;;23.10;77.20;;;;;;5031342;28;20036;-58
2022/06/28 03:06:03;;;;;;;4.03;3.63;;;23.20;77.20;;;;;;5022194;28;20029;-58
2022/06/28 03:08:28;;;;;;;4.03;3.53;;;23.20;76.90;;;;;;5025793;28;20033;-57
2022/06/28 03:10:54;;;;;;;3.78;3.47;;;23.20;76.80;;;;;;5023868;28;20033;-58
2022/06/28 03:13:20;;;;;;;4.30;3.90;;;23.30;77.40;;;;;;5026500;28;20084;-57
2022/06/28 03:15:45;;;;;;;5.53;4.40;;;23.30;76.70;;;;;;5042027;28;20014;-58
2022/06/28 03:18:11;;;;;;;4.32;3.92;;;23.30;76.70;;;;;;5030413;28;20022;-58
2022/06/28 03:20:37;;;;;;;5.25;4.57;;;23.40;76.80;;;;;;5030090;28;20039;-58
2022/06/28 03:23:03;;;;;;;4.78;4.28;;;23.40;76.70;;;;;;5018811;28;20040;-58
2022/06/28 03:25:28;;;;;;;5.05;4.55;;;23.50;76.70;;;;;;5028891;28;20101;-58
2022/06/28 03:27:54;;;;;;;4.28;3.83;;;23.50;76.80;;;;;;5024280;28;20057;-58
2022/06/28 03:30:20;;;;;;;6.47;4.53;;;23.60;76.60;;;;;;5031824;28;20033;-58
2022/06/28 03:32:45;;;;;;;4.60;4.20;;;23.70;76.50;;;;;;5024338;28;20072;-58
2022/06/28 03:35:11;;;;;;;4.55;4.10;;;23.80;76.60;;;;;;5031526;28;20029;-58
2022/06/28 03:37:37;;;;;;;5.03;4.18;;;24.00;76.70;;;;;;5028528;28;20367;-58
2022/06/28 03:40:04;;;;;;;4.10;3.72;;;24.30;77.60;;;;;;5025942;28;20122;-57
2022/06/28 03:42:30;;;;;;;4.70;4.20;;;24.70;78.20;;;;;;5015578;28;20088;-58
2022/06/28 03:44:56;;;;;;;4.38;3.65;;;25.30;77.70;;;;;;5027819;28;20084;-58
2022/06/28 03:47:22;;;;;;;3.85;3.42;;;26.00;76.90;;;;;;5031275;28;20068;-58
2022/06/28 03:49:47;;;;;;;4.43;3.30;;;26.80;75.70;;;;;;5028879;28;20040;-58
2022/06/28 03:52:14;;;;;;;3.80;3.30;;;27.80;74.30;;;;;;5030344;28;20044;-56
2022/06/28 03:54:40;;;;;;;3.70;3.08;;;28.80;72.30;;;;;;5031143;28;20120;-58
2022/06/28 03:57:05;;;;;;;3.40;3.10;;;29.90;70.40;;;;;;5025715;28;20105;-58
2022/06/28 03:59:31;;;;;;;2.95;2.65;;;30.90;68.90;;;;;;5028043;28;20025;-57
2022/06/28 04:01:57;;;;;;;3.30;3.00;;;31.90;67.30;;;;;;5034629;28;20091;-58
2022/06/28 04:04:23;;;;;;;4.10;3.17;;;32.80;65.50;;;;;;5026561;28;20120;-58
2022/06/28 04:06:48;;;;;;;3.45;3.15;;;33.70;63.70;;;;;;5032409;28;20029;-58
2022/06/28 04:09:14;;;;;;;3.30;3.00;;;34.50;62.50;;;;;;5022603;28;20033;-58
2022/06/28 04:11:39;;;;;;;3.25;2.95;;;35.20;61.10;;;;;;5033094;28;20385;-58
2022/06/28 04:14:05;;;;;;;3.35;2.97;;;35.90;59.70;;;;;;5030370;28;20492;-58
2022/06/28 04:16:32;;;;;;;3.20;2.90;;;36.40;58.70;;;;;;5026078;28;20033;-58
2022/06/28 04:18:58;;;;;;;3.33;3.03;;;37.00;57.70;;;;;;5027123;28;20140;-58
2022/06/28 04:21:23;;;;;;;3.13;2.85;;;37.50;56.90;;;;;;5029590;28;20109;-58
2022/06/28 04:23:49;;;;;;;3.20;2.90;;;37.80;56.00;;;;;;5032520;28;20501;-57
2022/06/28 04:26:15;;;;;;;2.85;2.65;;;38.30;55.60;;;;;;5027403;28;20025;-57
2022/06/28 04:28:41;;;;;;;2.60;2.40;;;38.60;55.00;;;;;;5021774;28;20120;-58
2022/06/28 04:31:07;;;;;;;3.00;2.80;;;39.00;54.40;;;;;;5028324;28;20573;-58
2022/06/28 04:33:34;;;;;;;2.80;2.60;;;39.30;53.50;;;;;;5031955;28;20030;-58
2022/06/28 04:36:00;;;;;;;4.00;3.45;;;39.50;52.80;;;;;;5035855;28;20021;-57
2022/06/28 04:38:26;;;;;;;3.40;3.10;;;39.90;52.00;;;;;;5034031;28;20051;-58
2022/06/28 04:40:51;;;;;;;3.72;2.92;;;40.10;51.50;;;;;;5029466;28;20045;-57
2022/06/28 04:43:17;;;;;;;3.10;2.80;;;40.30;51.00;;;;;;5036063;28;20039;-58
2022/06/28 04:45:43;;;;;;;3.85;3.55;;;40.50;50.50;;;;;;5035489;28;20022;-58
2022/06/28 04:48:08;;;;;;;3.00;2.80;;;40.70;50.20;;;;;;5027600;28;20114;-57
2022/06/28 04:50:34;;;;;;;2.88;2.67;;;40.90;49.70;;;;;;5028642;28;20033;-58
2022/06/28 04:53:00;;;;;;;3.25;2.90;;;41.10;49.40;;;;;;5034009;28;20052;-58
2022/06/28 04:55:26;;;;;;;3.67;3.38;;;41.30;49.10;;;;;;5034337;28;20026;-58
2022/06/28 04:57:52;;;;;;;4.40;3.22;;;41.50;48.60;;;;;;5031184;28;20028;-58
2022/06/28 05:00:18;;;;;;;2.90;2.70;;;41.70;48.10;;;;;;5032705;28;20481;-58
2022/06/28 05:02:44;;;;;;;3.63;3.33;;;41.80;47.70;;;;;;5030679;28;20026;-58
2022/06/28 05:05:11;;;;;;;2.95;2.75;;;41.90;47.50;;;;;;5034941;28;20113;-58
2022/06/28 05:07:37;;;;;;;3.35;3.05;;;41.90;47.20;;;;;;5026190;28;20030;-59
2022/06/28 05:10:05;;;;;;;3.63;3.20;;;42.00;47.10;;;;;;5032339;28;20036;-58
2022/06/28 05:12:30;;;;;;;3.60;3.30;;;42.10;46.90;;;;;;5027882;28;20101;-58
2022/06/28 05:14:56;;;;;;;3.38;3.08;;;42.10;46.70;;;;;;5028870;28;20060;-59
2022/06/28 05:17:22;;;;;;;3.40;3.05;;;42.20;46.50;;;;;;5028829;28;20053;-58
2022/06/28 05:19:48;;;;;;;2.95;2.70;;;42.20;46.10;;;;;;5033117;28;20029;-58
2022/06/28 05:22:14;;;;;;;3.25;2.95;;;42.10;45.60;;;;;;5037681;28;20084;-58
2022/06/28 05:24:40;;;;;;;3.40;3.03;;;42.00;44.90;;;;;;5025287;28;20026;-58
2022/06/28 05:27:06;;;;;;;3.10;2.85;;;41.80;44.60;;;;;;5032141;28;20108;-58
2022/06/28 05:29:31;;;;;;;3.70;3.10;;;41.20;45.20;;;;;;5029813;28;20087;-58
2022/06/28 05:31:57;;;;;;;3.08;2.88;;;40.40;44.90;;;;;;5033908;28;20557;-58
2022/06/28 05:34:23;;;;;;;3.38;3.08;;;39.50;45.40;;;;;;5025103;28;20026;-58
2022/06/28 05:36:49;;;;;;;3.85;3.45;;;38.60;46.30;;;;;;5034369;28;20044;-58
2022/06/28 05:39:15;;;;;;;3.50;3.20;;;37.70;47.00;;;;;;5021081;28;20026;-58
2022/06/28 05:41:44;;;;;;;3.33;3.03;;;36.90;47.80;;;;;;5026380;28;20445;-58
2022/06/28 05:44:14;;;;;;;3.92;3.53;;;36.20;48.60;;;;;;5031327;28;20040;-59
2022/06/28 05:46:40;;;;;;;3.88;3.22;;;35.40;49.30;;;;;;5029013;28;20037;-58
2022/06/28 05:49:09;;;;;;;3.50;3.20;;;34.80;50.00;;;;;;5029912;28;20022;-58
2022/06/28 05:51:35;;;;;;;3.65;3.35;;;34.30;50.60;;;;;;5033101;28;20101;-58
2022/06/28 05:54:01;;;;;;;5.43;3.50;;;33.80;51.10;;;;;;5027527;28;20137;-58
2022/06/28 05:56:28;;;;;;;3.67;3.30;;;33.40;51.70;;;;;;5021484;28;20184;-58
2022/06/28 05:58:53;;;;;;;4.78;3.55;;;33.00;52.20;;;;;;5023822;28;20104;-58
2022/06/28 06:01:20;;;;;;;4.07;3.67;;;32.70;52.60;;;;;;5030503;28;20113;-58
2022/06/28 06:03:47;;;;;;;4.00;3.60;;;32.50;53.10;;;;;;5023469;28;20022;-58
2022/06/28 06:06:12;;;;;;;4.20;3.80;;;32.20;53.40;;;;;;5029522;28;20026;-58
2022/06/28 06:08:38;;;;;;;4.60;3.70;;;32.00;53.80;;;;;;5031519;28;20634;-58
2022/06/28 06:11:07;;;;;;;4.25;3.80;;;31.80;53.90;;;;;;5021419;28;20474;-58
2022/06/28 06:13:36;;;;;;;4.13;3.70;;;31.70;54.30;;;;;;5028374;28;20103;-58
2022/06/28 06:16:03;;;;;;;3.37;3.07;;;31.50;54.50;;;;;;5023894;28;20080;-58
2022/06/28 06:18:29;;;;;;;3.17;2.88;;;31.40;54.70;;;;;;5018751;28;20034;-58
2022/06/28 06:20:55;;;;;;;4.72;3.90;;;31.20;54.80;;;;;;5025808;28;20505;-58
2022/06/28 06:23:20;;;;;;;3.95;3.55;;;31.10;55.10;;;;;;5030801;28;20043;-58
2022/06/28 06:25:46;;;;;;;4.25;3.85;;;31.10;55.40;;;;;;5030749;28;20028;-58
2022/06/28 06:28:12;;;;;;;3.85;3.53;;;30.90;55.70;;;;;;5030227;28;20056;-58
2022/06/28 06:30:39;;;;;;;3.50;3.20;;;30.80;55.80;;;;;;5033690;28;20029;-58
2022/06/28 06:33:05;;;;;;;4.13;3.72;;;30.80;56.10;;;;;;5023367;28;20029;-58
2022/06/28 06:35:30;;;;;;;4.70;3.78;;;30.70;56.50;;;;;;5036462;28;20029;-58
2022/06/28 06:38:02;;;;;;;3.95;3.55;;;30.60;56.40;;;;;;5035099;28;20026;-58
2022/06/28 06:40:28;;;;;;;3.92;3.53;;;30.60;56.80;;;;;;5016797;28;20028;-58
2022/06/28 06:42:54;;;;;;;4.25;3.75;;;30.50;57.00;;;;;;5029616;28;20033;-58
2022/06/28 06:45:27;;;;;;;3.78;3.05;;;30.50;57.10;;;;;;5108385;27;20388;-59
2022/06/28 06:47:52;;;;;;;3.63;3.28;;;30.40;57.10;;;;;;5104048;28;20070;-58
2022/06/28 06:50:20;;;;;;;5.35;3.28;;;30.30;57.10;;;;;;5100083;28;20028;-58
2022/06/28 06:52:45;;;;;;;3.67;3.15;;;30.40;57.30;;;;;;5109009;28;20020;-58
2022/06/28 06:55:11;;;;;;;3.40;3.10;;;30.30;57.20;;;;;;5107044;28;20115;-59
2022/06/28 06:57:37;;;;;;;3.25;2.95;;;30.30;57.50;;;;;;5107451;28;20466;-59
2022/06/28 07:00:05;;;;;;;3.40;3.10;;;30.30;57.70;;;;;;5104378;28;20556;-59
2022/06/28 07:02:30;;;;;;;3.58;3.28;;;30.20;57.70;;;;;;5127328;27;20031;-59
2022/06/28 07:04:56;;;;;;;3.20;2.90;;;30.20;57.80;;;;;;5118201;27;20376;-59
2022/06/28 07:07:22;;;;;;;3.45;3.15;;;30.20;57.70;;;;;;5116454;27;20792;-59
2022/06/28 07:09:49;;;;;;;3.60;3.30;;;30.20;57.90;;;;;;5121822;27;20029;-59
2022/06/28 07:12:15;;;;;;;3.60;3.30;;;30.20;57.80;;;;;;5121566;27;20023;-59
2022/06/28 07:14:41;;;;;;;4.40;3.33;;;30.20;57.80;;;;;;5126790;27;20032;-59
2022/06/28 07:17:06;;;;;;;3.88;3.50;;;30.20;57.80;;;;;;5111722;27;20399;-59
2022/06/28 07:19:32;;;;;;;3.50;3.20;;;30.20;58.10;;;;;;5114395;28;20028;-59
2022/06/28 07:21:57;;;;;;;3.08;2.78;;;30.20;58.00;;;;;;5115383;28;20264;-59
2022/06/28 07:24:23;;;;;;;3.47;3.17;;;30.20;57.90;;;;;;5114825;28;20399;-59
2022/06/28 07:26:49;;;;;;;2.75;2.55;;;30.20;58.20;;;;;;5120504;28;20028;-58
2022/06/28 07:29:15;;;;;;;3.25;2.95;;;30.10;58.20;;;;;;5127360;28;20019;-59
2022/06/28 07:31:44;;;;;;;3.50;3.20;;;30.10;58.20;;;;;;5127900;28;20028;-59
2022/06/28 07:34:10;;;;;;;3.05;2.85;;;30.10;58.10;;;;;;5124180;27;20077;-59
2022/06/28 07:36:36;;;;;;;3.67;2.97;;;30.10;58.20;;;;;;5132463;27;20031;-59
2022/06/28 07:39:02;;;;;;;3.53;3.20;;;30.10;58.20;;;;;;5114737;27;20024;-59
2022/06/28 07:41:28;;;;;;;3.90;3.50;;;30.10;58.10;;;;;;5123931;27;20479;-59
2022/06/28 07:43:53;;;;;;;4.32;3.40;;;30.10;57.90;;;;;;5129937;27;20089;-59
2022/06/28 07:46:20;;;;;;;3.70;3.22;;;30.10;57.80;;;;;;5140626;27;20023;-59
2022/06/28 07:48:46;;;;;;;4.93;3.65;;;30.10;57.60;;;;;;5128119;27;20019;-59
2022/06/28 07:53:56;;;;;;;4.18;3.20;;;30.00;57.50;;;;;;5120903;28;20425;-59
2022/06/28 07:56:22;;;;;;;3.13;2.85;;;30.00;57.70;;;;;;5110557;28;20039;-59
2022/06/28 07:58:48;;;;;;;3.25;2.95;;;30.00;57.80;;;;;;5113344;28;20503;-59
2022/06/28 08:01:13;;;;;;;3.38;3.08;;;30.00;57.80;;;;;;5106660;28;20532;-59
2022/06/28 08:03:39;;;;;;;3.80;3.45;;;30.00;57.80;;;;;;5108929;28;20088;-59
2022/06/28 08:06:05;;;;;;;3.08;2.78;;;30.00;57.80;;;;;;5104161;28;20079;-59
2022/06/28 08:08:31;;;;;;;3.78;2.80;;;30.00;57.80;;;;;;5106793;28;20120;-59
2022/06/28 08:10:56;;;;;;;3.50;3.20;;;30.00;57.80;;;;;;5087964;28;20032;-59
2022/06/28 08:13:22;;;;;;;4.38;3.33;;;30.00;57.80;;;;;;5109612;28;20027;-58
2022/06/28 08:15:48;;;;;;;4.07;2.88;;;30.00;57.80;;;;;;5107378;28;20059;-60
2022/06/28 08:18:14;;;;;;;3.90;2.85;;;30.00;57.70;;;;;;5112916;28;20540;-61
2022/06/28 08:20:40;;;;;;;2.90;2.60;;;30.00;57.80;;;;;;5114245;28;20027;-57
2022/06/28 08:23:06;;;;;;;2.75;2.50;;;30.00;57.90;;;;;;5105480;28;20039;-58
2022/06/28 08:25:32;;;;;;;2.92;2.72;;;30.00;58.00;;;;;;5113040;28;20503;-58
2022/06/28 08:27:58;;;;;;;2.90;2.60;;;30.00;58.20;;;;;;5106371;28;20019;-59
2022/06/28 08:30:25;;;;;;;5.03;3.60;;;30.00;58.20;;;;;;5111882;28;20080;-58
2022/06/28 08:32:51;;;;;;;3.67;3.28;;;30.00;58.10;;;;;;5114552;28;20364;-58
2022/06/28 08:35:18;;;;;;;3.60;3.30;;;30.00;57.90;;;;;;5111848;28;20027;-58
2022/06/28 08:37:44;;;;;;;3.90;3.50;;;30.00;57.90;;;;;;5094189;28;20034;-58
2022/06/28 08:40:10;;;;;;;3.45;3.15;;;30.00;58.00;;;;;;5109472;28;20028;-58
2022/06/28 08:42:47;;;;;;;3.35;3.05;;;30.10;58.10;;;;;;5110291;28;20024;-58
2022/06/28 08:45:14;;;;;;;3.80;3.40;;;30.10;58.10;;;;;;5112049;28;20513;-58
2022/06/28 08:47:42;;;;;;;3.40;3.10;;;30.20;58.00;;;;;;5112209;28;20020;-58
2022/06/28 08:50:13;;;;;;;3.38;3.08;;;30.20;58.00;;;;;;5109185;28;20085;-58
2022/06/28 08:52:41;;;;;;;3.35;2.80;;;30.20;58.00;;;;;;5113079;28;20034;-59
2022/06/28 08:55:08;;;;;;;3.53;3.20;;;30.20;57.90;;;;;;5102111;28;20060;-58
2022/06/28 08:57:35;;;;;;;3.38;3.08;;;30.20;58.10;;;;;;5115505;28;20073;-58
2022/06/28 09:00:04;;;;;;;4.30;3.78;;;30.20;58.00;;;;;;5113540;28;20028;-58
2022/06/28 09:02:30;;;;;;;3.60;3.30;;;30.20;58.20;;;;;;5112559;28;20032;-58
2022/06/28 09:04:58;;;;;;;3.67;3.38;;;30.20;58.20;;;;;;5107502;27;20024;-59
2022/06/28 09:07:24;;;;;;;3.85;3.28;;;30.20;58.10;;;;;;5110402;28;20080;-58
2022/06/28 09:09:51;;;;;;;3.63;3.33;;;30.20;58.00;;;;;;5109028;28;20023;-58
2022/06/28 09:12:17;;;;;;;4.05;3.58;;;30.20;58.20;;;;;;5112771;28;20470;-58
2022/06/28 09:14:43;;;;;;;3.63;3.33;;;30.20;58.20;;;;;;5107479;28;20031;-58
2022/06/28 09:17:22;;;;;;;4.13;3.60;;;30.20;58.50;;;;;;5098951;28;20467;-59
2022/06/28 09:19:54;;;;;;;4.45;3.50;;;30.10;58.50;;;;;;5099803;28;20024;-58
2022/06/28 09:22:33;;;;;;;3.45;3.15;;;30.10;58.50;;;;;;5108543;28;20879;-58
2022/06/28 09:25:00;;;;;;;4.22;3.35;;;30.10;58.40;;;;;;5104342;28;20073;-58
2022/06/28 09:27:32;;;;;;;6.03;3.80;;;30.10;58.80;;;;;;5114716;28;20374;-58
2022/06/28 09:29:58;;;;;;;4.38;3.75;;;30.10;58.80;;;;;;5112237;28;20115;-58
2022/06/28 09:32:29;;;;;;;4.40;3.90;;;30.00;58.80;;;;;;5106298;28;20020;-58
2022/06/28 09:34:58;;;;;;;4.63;4.03;;;30.00;58.60;;;;;;5113250;28;20081;-59
2022/06/28 09:37:34;;;;;;;4.20;3.80;;;30.00;58.50;;;;;;5111557;28;20111;-58
2022/06/28 09:40:12;;;;;;;4.40;3.85;;;30.00;58.60;;;;;;5085704;28;20038;-59
2022/06/28 09:42:38;;;;;;;3.53;3.22;;;30.00;58.90;;;;;;5114226;28;20022;-58
2022/06/28 09:45:04;;;;;;;4.63;3.97;;;30.00;58.90;;;;;;5108874;28;20495;-58
2022/06/28 09:47:30;;;;;;;5.15;3.67;;;30.00;58.90;;;;;;5103529;28;20023;-58
2022/06/28 09:49:56;;;;;;;4.57;3.80;;;30.00;58.90;;;;;;5108597;28;20030;-58
2022/06/28 09:52:27;;;;;;;3.80;3.45;;;30.00;58.90;;;;;;5102679;28;20020;-58
2022/06/28 09:54:56;;;;;;;4.22;3.40;;;29.90;58.80;;;;;;5112462;28;20045;-58
2022/06/28 09:57:22;;;;;;;3.80;3.22;;;30.00;58.90;;;;;;5113049;28;20019;-59
2022/06/28 09:59:50;;;;;;;3.65;3.20;;;29.90;58.90;;;;;;5114879;27;20495;-58
2022/06/28 10:02:17;;;;;;;4.97;4.40;;;29.90;59.20;;;;;;5108232;28;20106;-58
2022/06/28 10:04:44;;;;;;;4.78;3.67;;;29.90;59.40;;;;;;5112273;28;20027;-58
2022/06/28 10:07:11;;;;;;;4.55;3.97;;;29.90;59.40;;;;;;5112189;28;20068;-58
2022/06/28 10:09:38;;;;;;;5.03;3.80;;;29.90;59.60;;;;;;5108580;28;20914;-59
2022/06/28 10:15:01;;;;;;;4.00;3.60;;;29.90;59.70;;;;;;5111824;28;20034;-58
2022/06/28 10:17:33;;;;;;;3.90;3.60;;;30.00;59.50;;;;;;5100159;28;20421;-58
2022/06/28 10:20:01;;;;;;;4.55;3.70;;;29.90;59.30;;;;;;5106737;28;20076;-58
2022/06/28 10:22:27;;;;;;;4.18;3.78;;;29.90;59.50;;;;;;5113383;28;20383;-58
2022/06/28 10:25:12;;;;;;;4.60;3.97;;;29.90;59.60;;;;;;5111175;28;20020;-58
2022/06/28 10:27:48;;;;;;;4.28;3.88;;;29.90;59.80;;;;;;5110911;28;20023;-58
2022/06/28 10:30:28;;;;;;;3.90;3.58;;;29.90;59.90;;;;;;5110671;28;20534;-58
2022/06/28 10:33:05;;;;;;;4.43;3.90;;;29.90;59.70;;;;;;5106906;28;20055;-59
2022/06/28 10:35:31;;;;;;;4.45;4.05;;;29.80;59.70;;;;;;5110257;28;20544;-58
2022/06/28 10:38:08;;;;;;;4.80;3.70;;;29.80;59.70;;;;;;5103362;28;20020;-58
2022/06/28 10:40:49;;;;;;;3.70;3.40;;;29.80;60.00;;;;;;5106547;28;20016;-59
2022/06/28 10:43:26;;;;;;;5.00;3.60;;;29.80;59.70;;;;;;5099636;28;20035;-58
2022/06/28 10:46:07;;;;;;;4.10;3.70;;;29.80;60.10;;;;;;5105796;28;20106;-59
2022/06/28 10:48:47;;;;;;;4.63;4.13;;;29.70;59.90;;;;;;5100577;28;20030;-59
2022/06/28 10:51:13;;;;;;;4.50;4.10;;;29.70;59.70;;;;;;5101596;28;20024;-59
2022/06/28 10:54:06;;;;;;;4.50;4.10;;;29.70;59.80;;;;;;5104708;28;20016;-58
2022/06/28 10:56:43;;;;;;;6.97;3.67;;;29.70;59.70;;;;;;5106817;28;20039;-58
2022/06/28 10:59:12;;;;;;;3.92;3.53;;;29.70;59.80;;;;;;5109068;28;20038;-58
2022/06/28 11:01:43;;;;;;;4.18;3.67;;;29.70;59.40;;;;;;5105858;28;20032;-58
2022/06/28 11:04:19;;;;;;;4.40;4.00;;;29.70;59.20;;;;;;5102612;28;20027;-58
2022/06/28 11:06:47;;;;;;;6.70;4.20;;;29.70;59.30;;;;;;5102430;28;20016;-58
2022/06/28 11:09:41;;;;;;;3.50;3.15;;;29.70;59.10;;;;;;5100219;28;20090;-58
2022/06/28 11:12:24;;;;;;;3.92;3.50;;;29.70;59.10;;;;;;5103642;28;20027;-58
2022/06/28 11:14:54;;;;;;;4.18;3.78;;;29.70;59.10;;;;;;5107589;28;20085;-58
2022/06/28 11:17:32;;;;;;;3.70;3.40;;;29.70;59.10;;;;;;5102785;28;20039;-58
2022/06/28 11:20:03;;;;;;;5.05;3.80;;;29.70;58.90;;;;;;5099314;28;20352;-59
2022/06/28 11:22:36;;;;;;;4.57;3.85;;;29.70;58.90;;;;;;5099459;28;20039;-58
2022/06/28 11:25:05;;;;;;;4.22;3.25;;;29.70;58.90;;;;;;5107475;28;20034;-58
2022/06/28 11:27:32;;;;;;;3.55;3.25;;;29.70;58.80;;;;;;5104849;28;20012;-59
2022/06/28 11:30:06;;;;;;;3.88;3.30;;;29.70;59.10;;;;;;5097273;28;20028;-57
2022/06/28 11:32:35;;;;;;;3.53;3.10;;;29.70;59.30;;;;;;5111360;28;20031;-58
2022/06/28 11:35:12;;;;;;;3.70;3.40;;;29.70;59.40;;;;;;5110840;28;20031;-58
2022/06/28 11:37:51;;;;;;;3.20;2.90;;;29.70;59.60;;;;;;5109911;28;20107;-59
2022/06/28 11:40:19;;;;;;;3.45;3.15;;;29.70;59.60;;;;;;5113274;28;20027;-58
2022/06/28 11:42:46;;;;;;;3.17;2.88;;;29.70;59.70;;;;;;5104504;28;20491;-58
2022/06/28 11:45:13;;;;;;;3.88;3.58;;;29.70;60.40;;;;;;5111797;28;20039;-59
2022/06/28 11:47:45;;;;;;;3.90;3.58;;;29.60;59.60;;;;;;5101946;28;20032;-59
2022/06/28 11:50:20;;;;;;;4.20;3.80;;;29.60;59.50;;;;;;5104485;28;20471;-60
2022/06/28 11:52:52;;;;;;;3.55;3.25;;;29.60;59.50;;;;;;5109077;28;20118;-57
2022/06/28 11:55:19;;;;;;;4.05;3.67;;;29.60;59.70;;;;;;5090746;28;20034;-57
2022/06/28 11:57:45;;;;;;;3.58;3.28;;;29.60;59.70;;;;;;5108698;28;20118;-57
2022/06/28 12:00:14;;;;;;;5.50;3.70;;;29.60;59.70;;;;;;5105073;28;20066;-57
2022/06/28 12:02:42;;;;;;;3.58;3.28;;;29.60;59.80;;;;;;5113304;28;20042;-57
2022/06/28 12:05:09;;;;;;;3.38;3.08;;;29.60;59.60;;;;;;5114808;28;20072;-57
2022/06/28 12:07:39;;;;;;;3.40;3.10;;;29.60;59.70;;;;;;5103995;28;20024;-59
2022/06/28 12:10:09;;;;;;;4.25;3.85;;;29.60;59.80;;;;;;5102303;28;20015;-60
2022/06/28 12:12:40;;;;;;;;;;;29.60;59.80;;;;;;5104499;28;20008;-59
2022/06/28 12:15:06;;;;;;;3.22;3.00;;;29.60;59.70;;;;;;5104232;28;19914;-58
2022/06/28 12:17:46;;;;;;;3.58;2.90;;;29.60;59.70;;;;;;5100073;28;20032;-59
2022/06/28 12:20:13;;;;;;;3.70;3.40;;;29.60;59.60;;;;;;5094431;28;20030;-57
2022/06/28 12:22:38;;;;;;;4.18;3.78;;;29.60;59.60;;;;;;5113100;28;20056;-57
2022/06/28 12:25:12;;;;;;;3.17;2.88;;;29.60;59.30;;;;;;5109808;28;20095;-58
2022/06/28 12:27:39;;;;;;;3.28;2.97;;;29.60;59.40;;;;;;5114007;28;20030;-58
2022/06/28 12:30:06;;;;;;;3.25;2.95;;;29.60;59.30;;;;;;5115011;28;20092;-58
2022/06/28 12:32:32;;;;;;;3.65;3.28;;;29.60;59.10;;;;;;5109785;28;20020;-59
2022/06/28 12:35:06;;;;;;;3.45;3.15;;;29.60;59.10;;;;;;5115120;28;20028;-59
2022/06/28 12:37:32;;;;;;;3.65;3.35;;;29.60;59.40;;;;;;5114804;28;20024;-59
2022/06/28 12:39:58;;;;;;;3.72;3.42;;;29.60;59.40;;;;;;5101516;28;20466;-59
2022/06/28 12:42:27;;;;;;;3.40;3.10;;;29.70;59.60;;;;;;5114146;27;20027;-59
2022/06/28 12:44:53;;;;;;;3.65;3.35;;;29.70;59.60;;;;;;5105089;28;20039;-59
2022/06/28 12:47:19;;;;;;;3.63;3.33;;;29.70;59.90;;;;;;5105914;28;20028;-59
2022/06/28 12:49:45;;;;;;;3.97;3.58;;;29.70;59.80;;;;;;5102599;28;20076;-59
2022/06/28 12:52:10;;;;;;;3.63;3.13;;;29.70;59.60;;;;;;5098340;28;20038;-58
2022/06/28 12:54:37;;;;;;;3.70;3.40;;;29.70;59.30;;;;;;5098066;28;20028;-59
2022/06/28 12:57:02;;;;;;;3.65;3.35;;;29.70;59.30;;;;;;5099467;28;20384;-59
2022/06/28 12:59:28;;;;;;;3.53;3.20;;;29.70;59.60;;;;;;5108429;28;20035;-58
2022/06/28 13:01:54;;;;;;;4.15;3.75;;;29.70;59.80;;;;;;5104743;28;20023;-59
2022/06/28 13:04:19;;;;;;;3.97;3.67;;;29.70;59.60;;;;;;5104073;28;20054;-59